Time;durP1;ratioP1;P1;durP2;ratioP2;P2;SDS_P1;SDS_P2;PMS_P1;PMS_P2;Temp;Humidity;BMP_temperature;BMP_pressure;BME280_temperature;BME280_humidity;BME280_pressure;Samples;Min_cycle;Max_cycle;Signal;HPM_P1;HPM_P2
2023/04/04 00:01:13;;;;;;;2.08;1.48;;;;;;;;;;5072042;28;20048;-32
2023/04/04 00:03:40;;;;;;;2.60;1.40;;;16.70;72.40;;;;;;5058407;28;20048;-30
2023/04/04 00:06:07;;;;;;;2.15;1.38;;;18.00;72.80;;;;;;5052169;28;20045;-31
2023/04/04 00:08:36;;;;;;;2.00;1.40;;;17.80;45.30;;;;;;5051629;28;20124;-34
2023/04/04 00:11:05;;;;;;;2.60;1.50;;;17.90;45.30;;;;;;5051806;28;20051;-33
2023/04/04 00:13:31;;;;;;;2.30;1.40;;;17.20;64.50;;;;;;5051893;28;20059;-30
2023/04/04 00:15:58;;;;;;;1.65;1.38;;;;;;;;;;5051928;28;20139;-34
2023/04/04 00:18:25;;;;;;;2.13;1.35;;;17.80;72.60;;;;;;5065930;28;20044;-30
2023/04/04 00:20:52;;;;;;;1.85;1.30;;;17.90;72.80;;;;;;5071565;28;20588;-30
2023/04/04 00:23:19;;;;;;;2.72;1.40;;;;;;;;;;5071687;28;20386;-34
2023/04/04 00:25:51;;;;;;;2.88;1.40;;;;;;;;;;5071544;28;20462;-30
2023/04/04 00:28:18;;;;;;;2.13;1.40;;;;;;;;;;5071735;28;20493;-30
2023/04/04 00:30:45;;;;;;;1.52;1.40;;;17.40;52.30;;;;;;5069926;28;20459;-32
2023/04/04 00:33:12;;;;;;;2.55;1.60;;;16.40;72.60;;;;;;5051656;28;20167;-30
2023/04/04 00:35:39;;;;;;;2.25;1.40;;;;;;;;;;5051543;28;20115;-30
2023/04/04 00:38:06;;;;;;;1.80;1.30;;;17.30;73.00;;;;;;5070206;28;20044;-30
2023/04/04 00:40:33;;;;;;;2.00;1.40;;;;;;;;;;5071842;28;20103;-31
2023/04/04 00:43:02;;;;;;;2.03;1.45;;;;;;;;;;5071687;28;20048;-30
2023/04/04 00:45:29;;;;;;;2.08;1.45;;;18.70;73.80;;;;;;5070957;28;20056;-31
2023/04/04 00:47:56;;;;;;;2.10;1.50;;;;;;;;;;5071452;28;20050;-33
2023/04/04 00:50:23;;;;;;;2.00;1.33;;;17.20;73.10;;;;;;5071542;28;20067;-30
2023/04/04 00:52:50;;;;;;;1.90;1.38;;;;;;;;;;5071218;28;20424;-35
2023/04/04 00:55:17;;;;;;;2.63;1.40;;;17.70;73.50;;;;;;5071781;28;20045;-30
2023/04/04 00:57:44;;;;;;;1.73;1.40;;;;;;;;;;5074141;28;20044;-30
2023/04/04 01:00:13;;;;;;;2.33;1.42;;;17.50;45.30;;;;;;5074745;28;20057;-30
2023/04/04 01:02:40;;;;;;;1.80;1.45;;;;;;;;;;5075164;28;20444;-33
2023/04/04 01:05:07;;;;;;;2.03;1.42;;;17.10;72.70;;;;;;5075047;28;20513;-30
2023/04/04 01:07:34;;;;;;;1.58;1.48;;;17.40;45.30;;;;;;5075030;28;20504;-33
2023/04/04 01:10:02;;;;;;;2.03;1.58;;;18.50;73.80;;;;;;5075200;28;20055;-30
2023/04/04 01:12:29;;;;;;;2.58;1.63;;;17.30;63.10;;;;;;5075262;28;20118;-29
2023/04/04 01:14:56;;;;;;;2.45;1.40;;;;;;;;;;5065642;28;20052;-32
2023/04/04 01:17:25;;;;;;;2.22;1.40;;;17.40;45.40;;;;;;5054954;28;20048;-30
2023/04/04 01:19:54;;;;;;;4.00;1.45;;;;;;;;;;5054863;28;20045;-30
2023/04/04 01:22:21;;;;;;;2.13;1.40;;;17.30;73.30;;;;;;5054951;28;20049;-30
2023/04/04 01:24:48;;;;;;;2.40;1.48;;;17.30;73.00;;;;;;5055134;28;20045;-30
2023/04/04 01:27:16;;;;;;;2.65;1.52;;;;;;;;;;5054924;28;20059;-33
2023/04/04 01:29:43;;;;;;;2.35;1.40;;;17.10;61.40;;;;;;5070029;28;20060;-30
2023/04/04 01:32:12;;;;;;;2.00;1.40;;;17.40;45.40;;;;;;5074397;28;20048;-30
2023/04/04 01:34:41;;;;;;;2.45;1.50;;;;;;;;;;5074763;28;20048;-30
2023/04/04 01:37:11;;;;;;;2.10;1.60;;;17.50;45.50;;;;;;5074266;28;20048;-30
2023/04/04 01:39:40;;;;;;;2.38;1.50;;;;;;;;;;5074800;28;20409;-30
2023/04/04 01:42:07;;;;;;;2.97;1.48;;;;;;;;;;5074633;28;20127;-30
2023/04/04 01:44:35;;;;;;;2.88;1.50;;;;;;;;;;5073593;28;20052;-30
2023/04/04 01:47:03;;;;;;;2.45;1.50;;;17.60;73.30;;;;;;5074505;28;20044;-30
2023/04/04 01:49:30;;;;;;;1.73;1.40;;;17.20;73.10;;;;;;5074404;28;20087;-30
2023/04/04 01:51:56;;;;;;;2.72;1.95;;;17.00;59.70;;;;;;5074293;28;20413;-33
2023/04/04 01:54:24;;;;;;;2.65;1.63;;;;;;;;;;5074028;28;20055;-36
2023/04/04 01:56:52;;;;;;;2.42;1.30;;;;;;;;;;5073756;28;20057;-34
2023/04/04 01:59:18;;;;;;;2.30;1.55;;;17.50;73.10;;;;;;5074176;28;20602;-30
2023/04/04 02:01:46;;;;;;;2.10;1.50;;;17.60;45.20;;;;;;5074151;28;20063;-30
2023/04/04 02:04:14;;;;;;;3.28;1.52;;;17.30;72.50;;;;;;5074092;28;20059;-30
2023/04/04 02:06:41;;;;;;;2.40;1.48;;;18.10;73.20;;;;;;5074280;28;20114;-30
2023/04/04 02:09:08;;;;;;;1.45;1.15;;;;;;;;;;5073338;28;20091;-30
2023/04/04 02:11:36;;;;;;;2.28;1.38;;;17.30;72.30;;;;;;5071138;28;20048;-31
2023/04/04 02:14:04;;;;;;;1.80;1.20;;;;;;;;;;5054715;28;20095;-30
2023/04/04 02:16:30;;;;;;;2.63;1.50;;;18.00;60.70;;;;;;5054314;28;20053;-30
2023/04/04 02:18:58;;;;;;;1.77;1.20;;;17.90;45.00;;;;;;5054185;28;20049;-30
2023/04/04 02:21:26;;;;;;;2.50;1.75;;;17.80;72.70;;;;;;5053635;28;20055;-30
2023/04/04 02:23:53;;;;;;;2.80;1.40;;;;;;;;;;5053653;28;20402;-32
2023/04/04 02:26:20;;;;;;;1.50;1.30;;;17.30;71.90;;;;;;5064004;28;20049;-30
2023/04/04 02:28:47;;;;;;;1.50;1.25;;;;;;;;;;5073905;28;20044;-32
2023/04/04 02:31:13;;;;;;;1.98;1.45;;;17.70;72.50;;;;;;5073637;28;20071;-30
2023/04/04 02:33:41;;;;;;;2.58;1.50;;;;;;;;;;5073195;28;20044;-30
2023/04/04 02:36:10;;;;;;;2.17;1.30;;;18.00;44.70;;;;;;5073204;28;20048;-30
2023/04/04 02:38:37;;;;;;;1.83;1.45;;;17.60;67.30;;;;;;5073477;28;20045;-30
2023/04/04 02:41:04;;;;;;;1.92;1.30;;;17.70;62.30;;;;;;5072329;28;20048;-30
2023/04/04 02:43:31;;;;;;;1.95;1.25;;;;;;;;;;5053610;28;20596;-31
2023/04/04 02:45:57;;;;;;;2.17;1.20;;;17.70;71.70;;;;;;5053404;28;20387;-30
2023/04/04 02:48:26;;;;;;;2.00;1.23;;;18.20;72.40;;;;;;5053325;28;20041;-31
2023/04/04 02:50:53;;;;;;;2.15;1.40;;;;;;;;;;5053304;28;20063;-30
2023/04/04 02:53:21;;;;;;;1.65;1.20;;;;;;;;;;5053084;28;20063;-30
2023/04/04 02:55:48;;;;;;;1.60;1.20;;;18.00;72.00;;;;;;5071177;28;20180;-30
2023/04/04 02:58:15;;;;;;;1.55;1.25;;;17.00;71.50;;;;;;5073526;28;20051;-31
2023/04/04 03:00:42;;;;;;;1.95;1.30;;;;;;;;;;5073084;28;20048;-33
2023/04/04 03:03:08;;;;;;;1.40;1.23;;;19.10;72.50;;;;;;5072753;28;20055;-30
2023/04/04 03:05:35;;;;;;;1.70;1.30;;;;;;;;;;5072782;28;20058;-32
2023/04/04 03:08:03;;;;;;;1.60;1.20;;;18.60;72.20;;;;;;5073088;28;20055;-30
2023/04/04 03:10:31;;;;;;;1.70;1.30;;;18.20;44.20;;;;;;5056400;28;20045;-32
2023/04/04 03:12:58;;;;;;;1.73;1.13;;;;;;;;;;5052827;28;20429;-32
2023/04/04 03:15:25;;;;;;;1.85;1.30;;;17.90;71.90;;;;;;5052632;28;20409;-30
2023/04/04 03:17:52;;;;;;;2.05;1.25;;;18.20;44.20;;;;;;5052600;28;20540;-33
2023/04/04 03:20:19;;;;;;;1.35;1.13;;;18.60;71.80;;;;;;5051809;28;20048;-30
2023/04/04 03:22:46;;;;;;;1.73;1.20;;;;;;;;;;5055083;28;20692;-31
2023/04/04 03:25:13;;;;;;;1.83;1.38;;;19.00;71.90;;;;;;5072653;28;20044;-30
2023/04/04 03:27:41;;;;;;;2.22;1.20;;;18.20;44.10;;;;;;5072435;28;20051;-30
2023/04/04 03:30:09;;;;;;;1.75;1.23;;;;;;;;;;5072611;28;20054;-30
2023/04/04 03:32:36;;;;;;;2.03;1.20;;;18.50;71.40;;;;;;5072410;28;20573;-30
2023/04/04 03:35:03;;;;;;;1.80;1.33;;;18.30;54.40;;;;;;5072467;28;20051;-31
2023/04/04 03:37:29;;;;;;;2.47;1.20;;;18.00;71.20;;;;;;5071470;28;20049;-30
2023/04/04 03:39:56;;;;;;;2.67;1.40;;;;;;;;;;5072095;28;20045;-30
2023/04/04 03:42:24;;;;;;;2.17;1.45;;;;;;;;;;5053688;28;20049;-30
2023/04/04 03:44:53;;;;;;;1.20;1.10;;;;;;;;;;5052176;28;20099;-30
2023/04/04 03:47:20;;;;;;;1.92;1.20;;;18.70;60.30;;;;;;5052518;28;20056;-30
2023/04/04 03:49:50;;;;;;;1.73;1.33;;;;;;;;;;5052009;28;20053;-30
2023/04/04 03:52:17;;;;;;;1.85;1.15;;;;;;;;;;5062258;28;20544;-30
2023/04/04 03:54:45;;;;;;;2.40;1.30;;;18.40;71.50;;;;;;5072073;28;20052;-30
2023/04/04 03:57:12;;;;;;;1.80;1.40;;;;;;;;;;5072240;28;20060;-30
2023/04/04 03:59:38;;;;;;;1.63;1.20;;;18.10;69.80;;;;;;5072047;28;20046;-31
2023/04/04 04:02:06;;;;;;;2.42;1.20;;;18.50;43.90;;;;;;5071932;28;20067;-35
2023/04/04 04:04:33;;;;;;;2.30;1.30;;;;;;;;;;5071926;28;20052;-30
2023/04/04 04:07:01;;;;;;;1.98;1.30;;;18.60;71.10;;;;;;5071394;28;20131;-30
2023/04/04 04:09:28;;;;;;;2.13;1.20;;;18.70;61.50;;;;;;5071991;28;20130;-30
2023/04/04 04:11:55;;;;;;;1.60;1.15;;;19.90;71.60;;;;;;5072006;28;20051;-30
2023/04/04 04:14:22;;;;;;;2.58;1.73;;;;;;;;;;5071845;28;20056;-32
2023/04/04 04:16:49;;;;;;;2.00;1.23;;;18.70;71.10;;;;;;5071866;28;20052;-31
2023/04/04 04:19:17;;;;;;;1.98;1.30;;;18.50;43.60;;;;;;5071953;28;20041;-34
2023/04/04 04:21:44;;;;;;;3.08;1.20;;;;;;;;;;5054446;28;20087;-30
2023/04/04 04:24:10;;;;;;;2.95;1.30;;;18.40;70.80;;;;;;5070079;28;20045;-31
2023/04/04 04:26:37;;;;;;;1.88;1.10;;;19.20;71.70;;;;;;5071827;28;20493;-30
2023/04/04 04:29:07;;;;;;;1.33;1.15;;;19.80;71.40;;;;;;5071612;28;20174;-30
2023/04/04 04:31:33;;;;;;;1.50;1.20;;;18.90;71.40;;;;;;5072666;28;20049;-30
2023/04/04 04:34:02;;;;;;;1.45;1.20;;;;;;;;;;5075820;28;20052;-33
2023/04/04 04:36:30;;;;;;;1.15;1.05;;;17.70;50.60;;;;;;5075000;28;20413;-31
2023/04/04 04:38:57;;;;;;;2.13;1.10;;;;;;;;;;5075602;28;20127;-33
2023/04/04 04:41:23;;;;;;;1.75;1.15;;;19.80;71.90;;;;;;5075811;28;20048;-30
2023/04/04 04:43:51;;;;;;;1.67;1.10;;;;;;;;;;5075523;28;20049;-31
2023/04/04 04:46:18;;;;;;;1.40;1.15;;;18.80;51.10;;;;;;5075861;28;20075;-30
2023/04/04 04:48:45;;;;;;;1.27;1.13;;;;;;;;;;5074580;28;20040;-30
2023/04/04 04:51:12;;;;;;;2.47;1.23;;;18.50;70.60;;;;;;5075587;28;20044;-30
2023/04/04 04:53:41;;;;;;;1.50;1.02;;;;;;;;;;5075444;28;20055;-30
2023/04/04 04:56:07;;;;;;;1.92;1.20;;;18.50;70.40;;;;;;5075426;28;20044;-30
2023/04/04 04:58:34;;;;;;;1.33;1.20;;;18.00;70.80;;;;;;5075224;28;20405;-30
2023/04/04 05:01:01;;;;;;;2.33;1.30;;;;;;;;;;5075421;28;20053;-35
2023/04/04 05:03:28;;;;;;;1.90;1.20;;;;;;;;;;5073807;28;20048;-30
2023/04/04 05:05:56;;;;;;;1.65;1.20;;;;;;;;;;5075529;28;20132;-34
2023/04/04 05:08:22;;;;;;;3.40;1.48;;;18.30;70.40;;;;;;5075047;28;20076;-30
2023/04/04 05:10:53;;;;;;;1.98;1.27;;;;;;;;;;5075207;28;20128;-35
2023/04/04 05:13:20;;;;;;;1.80;1.23;;;19.90;71.10;;;;;;5074896;28;20055;-30
2023/04/04 05:15:47;;;;;;;1.92;1.17;;;18.60;71.00;;;;;;5075010;28;20064;-30
2023/04/04 05:18:14;;;;;;;2.00;1.40;;;;;;;;;;5063706;28;20793;-33
2023/04/04 05:20:40;;;;;;;2.03;1.33;;;18.70;70.70;;;;;;5074920;28;20052;-30
2023/04/04 05:23:07;;;;;;;2.03;1.30;;;19.90;71.40;;;;;;5074780;28;20054;-29
2023/04/04 05:25:34;;;;;;;2.13;1.20;;;;;;;;;;5075045;28;20044;-32
2023/04/04 05:28:02;;;;;;;2.38;1.38;;;18.60;43.00;;;;;;5075065;28;20049;-31
2023/04/04 05:30:29;;;;;;;3.20;1.40;;;18.90;70.90;;;;;;5074955;28;20063;-30
2023/04/04 05:32:56;;;;;;;1.60;1.10;;;;;;;;;;5074013;28;20044;-34
2023/04/04 05:35:24;;;;;;;1.52;1.20;;;;;;;;;;5074770;28;20048;-30
2023/04/04 05:37:51;;;;;;;2.05;1.27;;;18.50;70.30;;;;;;5074087;28;20045;-30
2023/04/04 05:40:19;;;;;;;2.53;1.30;;;;;;;;;;5074393;28;20539;-30
2023/04/04 05:42:54;;;;;;;1.60;1.10;;;18.70;42.90;;;;;;5073914;28;20049;-30
2023/04/04 05:45:23;;;;;;;2.35;1.45;;;;;;;;;;5074499;28;20056;-30
2023/04/04 05:47:49;;;;;;;2.53;1.35;;;18.50;70.20;;;;;;5073798;28;20063;-30
2023/04/04 05:50:16;;;;;;;1.98;1.40;;;17.50;70.10;;;;;;5067550;28;20557;-30
2023/04/04 05:52:43;;;;;;;1.65;1.13;;;;;;;;;;5062612;28;20155;-31
2023/04/04 05:55:10;;;;;;;2.25;1.17;;;;;;;;;;5068353;28;20135;-32
2023/04/04 05:57:37;;;;;;;2.38;1.30;;;18.40;47.50;;;;;;5074277;28;20135;-32
2023/04/04 06:00:05;;;;;;;2.28;1.40;;;18.60;70.60;;;;;;5074273;28;20497;-31
2023/04/04 06:02:33;;;;;;;2.20;1.55;;;18.80;42.90;;;;;;5065692;28;20049;-30
2023/04/04 06:05:00;;;;;;;2.10;1.30;;;18.40;70.00;;;;;;5059575;28;20055;-30
2023/04/04 06:07:27;;;;;;;2.00;1.20;;;18.40;70.00;;;;;;5054073;28;20052;-31
2023/04/04 06:09:53;;;;;;;1.70;1.10;;;18.60;47.80;;;;;;5064962;28;20044;-31
2023/04/04 06:12:20;;;;;;;5.47;1.67;;;19.10;70.60;;;;;;5064035;28;20044;-29
2023/04/04 06:14:47;;;;;;;2.15;1.33;;;;;;;;;;5056310;28;20045;-34
2023/04/04 06:17:14;;;;;;;2.33;1.23;;;18.60;70.10;;;;;;5061393;28;20128;-30
2023/04/04 06:19:42;;;;;;;3.85;1.38;;;19.00;42.80;;;;;;5064497;28;20049;-30
2023/04/04 06:22:09;;;;;;;1.67;1.10;;;18.50;67.60;;;;;;5053334;28;20044;-30
2023/04/04 06:24:36;;;;;;;1.48;1.30;;;18.30;69.30;;;;;;5053267;28;20512;-30
2023/04/04 06:27:03;;;;;;;2.55;1.15;;;;;;;;;;5052676;28;20045;-34
2023/04/04 06:29:30;;;;;;;2.15;1.30;;;;;;;;;;5052933;28;20049;-33
2023/04/04 06:31:58;;;;;;;2.17;1.40;;;19.10;70.00;;;;;;5053588;28;20056;-30
2023/04/04 06:34:25;;;;;;;2.30;1.20;;;19.20;69.80;;;;;;5053087;28;20056;-30
2023/04/04 06:36:53;;;;;;;2.65;1.33;;;19.30;42.40;;;;;;5062235;28;20107;-30
2023/04/04 06:39:19;;;;;;;4.63;1.27;;;19.50;69.90;;;;;;5073659;28;20048;-31
2023/04/04 06:41:47;;;;;;;1.73;1.10;;;;;;;;;;5073485;28;20412;-33
2023/04/04 06:44:14;;;;;;;1.95;1.40;;;19.90;69.40;;;;;;5073328;28;20099;-30
2023/04/04 06:46:40;;;;;;;2.60;1.20;;;19.90;62.00;;;;;;5071491;28;20051;-31
2023/04/04 06:49:07;;;;;;;2.67;1.20;;;19.30;69.40;;;;;;5052968;28;20398;-30
2023/04/04 06:51:34;;;;;;;2.00;1.20;;;18.40;68.50;;;;;;5051955;28;20139;-30
2023/04/04 06:54:02;;;;;;;1.45;1.20;;;20.30;47.60;;;;;;5057137;28;20047;-32
2023/04/04 06:56:29;;;;;;;2.90;1.40;;;18.80;61.30;;;;;;5065026;28;20048;-31
2023/04/04 06:58:56;;;;;;;3.20;1.20;;;;;;;;;;5055834;28;20048;-33
2023/04/04 07:01:23;;;;;;;1.98;1.10;;;19.60;68.80;;;;;;5052634;28;20399;-30
2023/04/04 07:03:53;;;;;;;3.42;1.40;;;;;;;;;;5053394;28;20055;-29
2023/04/04 07:06:22;;;;;;;3.45;1.42;;;19.90;42.00;;;;;;5070670;28;20055;-30
2023/04/04 07:08:49;;;;;;;2.95;1.50;;;;;;;;;;5073037;28;20048;-33
2023/04/04 07:11:17;;;;;;;1.30;1.20;;;19.90;41.80;;;;;;5064391;28;20044;-29
2023/04/04 07:13:44;;;;;;;2.90;1.27;;;19.10;68.30;;;;;;5061519;28;20504;-30
2023/04/04 07:16:11;;;;;;;2.50;1.30;;;;;;;;;;5062435;28;20064;-35
2023/04/04 07:18:38;;;;;;;2.72;1.30;;;20.00;69.20;;;;;;5063619;28;20080;-30
2023/04/04 07:21:05;;;;;;;1.67;1.17;;;;;;;;;;5065084;28;20044;-30
2023/04/04 07:23:32;;;;;;;1.38;1.10;;;20.30;68.80;;;;;;5059793;28;20485;-30
2023/04/04 07:25:59;;;;;;;1.85;1.30;;;;;;;;;;5055554;28;20434;-34
2023/04/04 07:28:28;;;;;;;1.63;1.13;;;;;;;;;;5065604;28;20068;-32
2023/04/04 07:30:55;;;;;;;3.28;1.17;;;20.20;68.90;;;;;;5068259;28;20400;-30
2023/04/04 07:33:22;;;;;;;1.95;1.33;;;;;;;;;;5060817;28;20049;-34
2023/04/04 07:35:49;;;;;;;1.55;1.20;;;21.70;69.10;;;;;;5064589;28;20136;-30
2023/04/04 07:38:16;;;;;;;2.22;1.38;;;;;;;;;;5060209;28;20049;-30
2023/04/04 07:40:43;;;;;;;2.72;1.48;;;20.20;68.40;;;;;;5052413;28;20056;-30
2023/04/04 07:43:09;;;;;;;2.33;1.50;;;20.60;68.90;;;;;;5056625;28;20409;-30
2023/04/04 07:45:37;;;;;;;2.30;1.50;;;20.40;41.70;;;;;;5057457;28;20056;-32
2023/04/04 07:48:04;;;;;;;2.13;1.20;;;20.70;42.30;;;;;;5051773;28;20412;-33
2023/04/04 07:50:31;;;;;;;3.13;1.52;;;20.40;68.70;;;;;;5052379;28;20059;-30
2023/04/04 07:52:58;;;;;;;2.60;1.30;;;;;;;;;;5052120;28;20079;-30
2023/04/04 07:55:25;;;;;;;3.35;1.42;;;;;;;;;;5068180;28;20127;-32
2023/04/04 07:57:53;;;;;;;2.38;1.20;;;;;;;;;;5070806;28;20418;-34
2023/04/04 08:00:21;;;;;;;1.63;1.30;;;;;;;;;;5071305;28;20158;-29
2023/04/04 08:02:53;;;;;;;1.70;1.20;;;20.50;41.50;;;;;;5057765;28;20084;-29
2023/04/04 08:05:20;;;;;;;4.03;1.30;;;20.30;68.00;;;;;;5072016;28;20508;-30
2023/04/04 08:07:47;;;;;;;1.52;1.10;;;;;;;;;;5068837;28;20059;-35
2023/04/04 08:10:16;;;;;;;1.48;1.10;;;21.60;68.60;;;;;;5064934;28;20041;-30
2023/04/04 08:12:43;;;;;;;4.45;1.30;;;;;;;;;;5060722;28;20115;-35
2023/04/04 08:15:11;;;;;;;2.15;1.30;;;;;;;;;;5061472;28;20059;-30
2023/04/04 08:17:38;;;;;;;1.95;1.15;;;20.60;67.90;;;;;;5051317;28;20049;-30
2023/04/04 08:20:07;;;;;;;3.67;1.60;;;20.70;41.20;;;;;;5051307;28;20401;-30
2023/04/04 08:22:33;;;;;;;3.53;1.30;;;20.10;61.50;;;;;;5051277;28;20417;-30
2023/04/04 08:25:00;;;;;;;2.67;1.40;;;20.70;68.00;;;;;;5050302;28;20049;-30
2023/04/04 08:27:27;;;;;;;1.55;1.10;;;;;;;;;;5050453;28;20060;-30
2023/04/04 08:29:54;;;;;;;2.22;1.50;;;;;;;;;;5050485;28;20051;-30
2023/04/04 08:32:21;;;;;;;2.05;1.10;;;21.90;68.50;;;;;;5050535;28;20063;-31
2023/04/04 08:34:48;;;;;;;2.35;1.20;;;;;;;;;;5050748;28;20494;-31
2023/04/04 08:37:17;;;;;;;2.08;1.10;;;20.90;41.00;;;;;;5061920;28;20123;-34
2023/04/04 08:39:44;;;;;;;2.45;1.10;;;;;;;;;;5071795;28;20053;-34
2023/04/04 08:42:11;;;;;;;2.35;1.05;;;;;;;;;;5071006;28;20128;-35
2023/04/04 08:44:38;;;;;;;1.77;1.15;;;;;;;;;;5052832;28;20040;-34
2023/04/04 08:47:06;;;;;;;2.20;1.23;;;;;;;;;;5052457;28;20053;-32
2023/04/04 08:49:34;;;;;;;1.73;1.30;;;;;;;;;;5059742;28;20573;-30
2023/04/04 08:52:02;;;;;;;1.55;1.10;;;;;;;;;;5060508;28;20053;-38
2023/04/04 08:54:30;;;;;;;2.00;1.30;;;21.20;40.90;;;;;;5067766;28;20059;-30
2023/04/04 08:56:57;;;;;;;1.48;1.00;;;21.40;67.60;;;;;;5062415;28;20048;-31
2023/04/04 08:59:24;;;;;;;2.45;1.17;;;21.80;68.00;;;;;;5060842;28;20049;-31
2023/04/04 09:01:52;;;;;;;2.22;1.10;;;21.20;46.20;;;;;;5061664;28;20048;-31
2023/04/04 09:04:19;;;;;;;2.13;1.23;;;22.90;68.10;;;;;;5068310;28;20052;-30
2023/04/04 09:06:47;;;;;;;3.40;1.25;;;;;;;;;;5068441;28;20045;-29
2023/04/04 09:09:13;;;;;;;1.63;1.00;;;22.00;67.80;;;;;;5065612;28;20402;-30
2023/04/04 09:11:41;;;;;;;1.23;1.00;;;21.50;40.70;;;;;;5059523;28;20054;-30
2023/04/04 09:14:08;;;;;;;1.73;1.00;;;22.10;67.40;;;;;;5050669;28;20136;-30
2023/04/04 09:16:35;;;;;;;1.35;1.13;;;21.60;48.20;;;;;;5050655;28;20402;-31
2023/04/04 09:19:02;;;;;;;1.23;0.95;;;;;;;;;;5053811;28;20127;-32
2023/04/04 09:21:29;;;;;;;1.88;1.10;;;;;;;;;;5054894;28;20051;-34
2023/04/04 09:23:59;;;;;;;1.65;1.10;;;22.80;68.00;;;;;;5054356;28;20131;-29
2023/04/04 09:26:26;;;;;;;1.48;1.00;;;21.30;67.10;;;;;;5054891;28;20064;-30
2023/04/04 09:28:55;;;;;;;1.90;1.20;;;21.60;40.50;;;;;;5055001;28;20064;-34
2023/04/04 09:31:21;;;;;;;2.00;1.20;;;21.60;46.40;;;;;;5054557;28;20045;-31
2023/04/04 09:33:48;;;;;;;1.50;1.10;;;22.20;57.70;;;;;;5054581;28;20053;-31
2023/04/04 09:36:16;;;;;;;1.30;1.00;;;;;;;;;;5055972;28;20070;-35
2023/04/04 09:38:44;;;;;;;1.15;0.85;;;;;;;;;;5071394;28;20140;-36
2023/04/04 09:41:10;;;;;;;1.13;0.93;;;21.60;66.90;;;;;;5065733;28;20048;-30
2023/04/04 09:43:38;;;;;;;2.08;1.10;;;21.30;66.70;;;;;;5074562;28;20056;-30
2023/04/04 09:46:06;;;;;;;1.48;1.00;;;21.60;40.40;;;;;;5074565;28;20044;-30
2023/04/04 09:48:35;;;;;;;3.08;1.30;;;;;;;;;;5074462;28;20135;-30
2023/04/04 09:51:04;;;;;;;1.42;1.00;;;;;;;;;;5065757;28;20041;-33
2023/04/04 09:53:31;;;;;;;1.42;1.00;;;;;;;;;;5053911;28;20055;-33
2023/04/04 09:55:58;;;;;;;1.55;1.05;;;;;;;;;;5065777;28;20049;-34
2023/04/04 09:58:25;;;;;;;1.75;0.93;;;22.30;67.50;;;;;;5062956;28;20071;-30
2023/04/04 10:00:52;;;;;;;1.70;1.08;;;21.00;41.00;;;;;;5066833;28;20405;-32
2023/04/04 10:03:22;;;;;;;1.13;0.93;;;21.50;66.80;;;;;;5063836;28;20132;-30
2023/04/04 10:05:54;;;;;;;1.38;1.08;;;22.40;50.60;;;;;;5062451;28;20052;-31
2023/04/04 10:08:21;;;;;;;2.20;1.00;;;21.50;40.40;;;;;;5064417;28;20047;-33
2023/04/04 10:10:49;;;;;;;1.92;0.90;;;;;;;;;;5058863;28;20045;-30
2023/04/04 10:13:23;;;;;;;1.88;1.30;;;;;;;;;;5053701;28;20398;-30
2023/04/04 10:15:50;;;;;;;1.87;1.07;;;;;;;;;;5061989;28;20489;-30
2023/04/04 10:18:17;;;;;;;1.73;0.98;;;21.60;46.40;;;;;;5063308;28;20049;-31
2023/04/04 10:20:45;;;;;;;2.50;1.08;;;21.70;40.50;;;;;;5062096;28;20048;-32
2023/04/04 10:23:11;;;;;;;1.33;1.10;;;21.80;66.90;;;;;;5062597;28;20489;-30
2023/04/04 10:25:38;;;;;;;2.15;1.08;;;21.30;66.70;;;;;;5063560;28;20056;-30
2023/04/04 10:28:05;;;;;;;3.13;1.20;;;;;;;;;;5062511;28;20053;-32
2023/04/04 10:30:32;;;;;;;2.72;1.20;;;21.50;67.20;;;;;;5063264;28;20040;-30
2023/04/04 10:33:02;;;;;;;2.92;1.13;;;21.60;40.30;;;;;;5062713;28;20045;-34
2023/04/04 10:35:28;;;;;;;3.17;1.50;;;21.00;66.60;;;;;;5059155;28;20069;-30
2023/04/04 10:37:58;;;;;;;7.43;1.30;;;;;;;;;;5057838;28;20125;-34
2023/04/04 10:40:26;;;;;;;4.22;1.33;;;21.60;66.80;;;;;;5058581;28;20052;-30
2023/04/04 10:42:53;;;;;;;4.35;1.50;;;;;;;;;;5062709;28;20076;-30
2023/04/04 10:45:20;;;;;;;3.55;1.42;;;21.80;67.40;;;;;;5061178;28;20049;-30
2023/04/04 10:47:47;;;;;;;4.90;1.58;;;22.70;67.70;;;;;;5062730;28;20049;-30
2023/04/04 10:50:14;;;;;;;2.67;1.30;;;;;;;;;;5073316;28;20044;-34
2023/04/04 10:52:42;;;;;;;3.30;1.17;;;21.40;67.00;;;;;;5058717;28;20140;-30
2023/04/04 10:55:11;;;;;;;3.30;1.30;;;21.30;40.50;;;;;;5066970;28;20075;-32
2023/04/04 10:57:40;;;;;;;4.00;1.30;;;21.40;67.60;;;;;;5057202;28;20489;-32
2023/04/04 11:00:09;;;;;;;2.83;1.20;;;21.80;68.20;;;;;;5053122;28;20114;-32
2023/04/04 11:02:46;;;;;;;3.35;1.20;;;;;;;;;;5055755;28;20140;-32
2023/04/04 11:05:14;;;;;;;3.38;1.42;;;22.40;67.60;;;;;;5061927;28;20052;-33
2023/04/04 11:07:41;;;;;;;1.98;1.10;;;20.00;66.40;;;;;;5062802;28;20052;-32
2023/04/04 11:10:15;;;;;;;1.77;1.00;;;21.20;40.50;;;;;;5073165;28;20421;-35
2023/04/04 11:12:45;;;;;;;3.95;1.30;;;21.00;67.20;;;;;;5056479;28;20049;-32
2023/04/04 11:15:13;;;;;;;2.00;1.20;;;22.20;67.90;;;;;;5061498;28;20055;-32
2023/04/04 11:17:55;;;;;;;4.28;1.10;;;;;;;;;;5062008;28;20066;-32
2023/04/04 11:20:23;;;;;;;3.40;1.20;;;;;;;;;;5062271;28;20163;-30
2023/04/04 11:22:50;;;;;;;2.45;1.00;;;21.00;67.90;;;;;;5061496;28;20049;-29
2023/04/04 11:25:29;;;;;;;2.33;1.30;;;;;;;;;;5060632;28;20044;-32
2023/04/04 11:27:56;;;;;;;3.38;1.30;;;21.20;66.20;;;;;;5061452;28;20049;-30
2023/04/04 11:30:23;;;;;;;1.95;1.10;;;;;;;;;;5062716;28;20056;-36
2023/04/04 11:32:50;;;;;;;2.15;1.40;;;20.50;67.00;;;;;;5058084;28;20119;-30
2023/04/04 11:35:17;;;;;;;3.83;1.80;;;;;;;;;;5061887;28;20045;-33
2023/04/04 11:37:44;;;;;;;3.40;2.20;;;;;;;;;;5053162;28;20074;-30
2023/04/04 11:40:12;;;;;;;3.33;2.33;;;20.80;40.40;;;;;;5052247;28;20413;-33
2023/04/04 11:42:40;;;;;;;4.15;2.33;;;20.70;40.30;;;;;;5051335;28;20044;-33
2023/04/04 11:45:09;;;;;;;4.10;2.50;;;20.70;40.40;;;;;;5052366;28;20084;-34
2023/04/04 11:47:36;;;;;;;6.28;2.80;;;;;;;;;;5052479;28;20056;-33
2023/04/04 11:50:08;;;;;;;7.13;2.70;;;;;;;;;;5052381;28;20045;-31
2023/04/04 11:52:35;;;;;;;3.63;2.60;;;;;;;;;;5057100;28;20079;-30
2023/04/04 11:55:02;;;;;;;4.22;2.28;;;;;;;;;;5072039;28;20060;-30
2023/04/04 11:57:29;;;;;;;4.05;2.60;;;20.20;67.20;;;;;;5072174;28;20076;-30
2023/04/04 11:59:57;;;;;;;3.10;2.60;;;20.50;40.50;;;;;;5071416;28;20059;-34
2023/04/04 12:02:26;;;;;;;4.00;2.95;;;22.00;50.60;;;;;;5071852;28;20040;-31
2023/04/04 12:04:54;;;;;;;3.22;2.55;;;21.60;68.20;;;;;;5071991;28;20127;-30
2023/04/04 12:07:21;;;;;;;5.15;3.00;;;19.80;67.30;;;;;;5071321;28;20059;-31
2023/04/04 12:09:48;;;;;;;3.05;2.50;;;;;;;;;;5070790;28;20075;-34
2023/04/04 12:12:15;;;;;;;3.20;2.40;;;20.90;67.80;;;;;;5067147;28;20072;-30
2023/04/04 12:14:42;;;;;;;3.08;2.78;;;;;;;;;;5056034;28;20049;-33
2023/04/04 12:17:10;;;;;;;3.92;2.78;;;20.50;40.50;;;;;;5051635;28;20523;-30
2023/04/04 12:19:38;;;;;;;3.65;2.97;;;;;;;;;;5051646;28;20052;-30
2023/04/04 12:22:06;;;;;;;4.85;2.80;;;20.90;53.70;;;;;;5051756;28;20045;-31
2023/04/04 12:24:33;;;;;;;3.33;2.80;;;20.50;68.40;;;;;;5051562;28;20049;-31
2023/04/04 12:27:01;;;;;;;3.40;2.67;;;20.30;67.70;;;;;;5052163;28;20128;-30
2023/04/04 12:29:34;;;;;;;3.05;2.75;;;;;;;;;;5051507;28;20609;-34
2023/04/04 12:32:01;;;;;;;5.35;2.80;;;;;;;;;;5051574;28;20056;-38
2023/04/04 12:34:30;;;;;;;3.55;2.65;;;19.60;39.90;;;;;;5051275;28;20063;-30
2023/04/04 12:36:57;;;;;;;4.30;2.90;;;21.10;40.80;;;;;;5060482;28;20063;-33
2023/04/04 12:39:26;;;;;;;4.90;3.00;;;20.70;40.50;;;;;;5071710;28;20107;-30
2023/04/04 12:41:53;;;;;;;3.15;2.60;;;;;;;;;;5071280;28;20095;-30
2023/04/04 12:44:28;;;;;;;3.35;2.50;;;20.70;40.40;;;;;;5062170;28;20429;-30
2023/04/04 12:46:57;;;;;;;4.75;2.88;;;20.70;40.50;;;;;;5065933;28;20505;-30
2023/04/04 12:49:26;;;;;;;6.22;3.10;;;20.80;67.30;;;;;;5063055;28;20527;-30
2023/04/04 12:51:55;;;;;;;3.83;2.90;;;20.70;40.50;;;;;;5071543;28;20045;-30
2023/04/04 12:54:26;;;;;;;6.28;2.47;;;20.70;40.40;;;;;;5074298;28;20454;-30
2023/04/04 12:56:55;;;;;;;5.15;3.17;;;20.70;40.40;;;;;;5072962;28;20052;-29
2023/04/04 12:59:22;;;;;;;4.25;3.15;;;21.00;67.70;;;;;;5063294;28;20497;-30
2023/04/04 13:01:49;;;;;;;4.22;2.88;;;;;;;;;;5062511;28;20645;-30
2023/04/04 13:04:17;;;;;;;4.78;3.30;;;20.40;67.10;;;;;;5064224;28;20508;-32
2023/04/04 13:06:45;;;;;;;4.80;3.10;;;20.70;40.50;;;;;;5075388;28;20494;-35
2023/04/04 13:09:18;;;;;;;5.10;3.47;;;;;;;;;;5073541;28;20057;-34
2023/04/04 13:11:58;;;;;;;5.85;3.55;;;;;;;;;;5075470;28;20045;-29
2023/04/04 13:14:26;;;;;;;4.60;3.70;;;;;;;;;;5075056;28;20055;-29
2023/04/04 13:17:04;;;;;;;4.97;3.83;;;21.20;65.30;;;;;;5075409;28;20052;-30
2023/04/04 13:19:31;;;;;;;6.00;4.30;;;19.60;67.10;;;;;;5075019;28;20559;-31
2023/04/04 13:21:58;;;;;;;7.05;4.35;;;;;;;;;;5067957;28;20048;-29
2023/04/04 13:24:26;;;;;;;4.90;3.92;;;;;;;;;;5054836;28;20051;-30
2023/04/04 13:26:53;;;;;;;6.18;3.78;;;20.40;67.40;;;;;;5055205;28;20045;-30
2023/04/04 13:29:20;;;;;;;6.00;4.20;;;20.20;67.70;;;;;;5055062;28;20045;-30
2023/04/04 13:31:47;;;;;;;5.43;4.05;;;;;;;;;;5062864;28;20049;-30